sensor_id;sensor_type;location;lat;lon;timestamp;P1;durP1;ratioP1;P2;durP2;ratioP2
42294;SDS011;27947;47.556;18.718;2023-04-03T00:01:22;6.00;;;3.83;;
42294;SDS011;27947;47.556;18.718;2023-04-03T00:03:47;6.20;;;3.92;;
42294;SDS011;27947;47.556;18.718;2023-04-03T00:06:13;5.95;;;3.95;;
42294;SDS011;27947;47.556;18.718;2023-04-03T00:08:38;6.10;;;4.10;;
42294;SDS011;27947;47.556;18.718;2023-04-03T00:11:04;6.25;;;3.63;;
42294;SDS011;27947;47.556;18.718;2023-04-03T00:13:30;5.68;;;3.70;;
42294;SDS011;27947;47.556;18.718;2023-04-03T00:15:55;4.82;;;3.55;;
42294;SDS011;27947;47.556;18.718;2023-04-03T00:18:21;4.63;;;3.50;;
42294;SDS011;27947;47.556;18.718;2023-04-03T00:20:47;5.05;;;3.50;;
42294;SDS011;27947;47.556;18.718;2023-04-03T00:23:12;6.20;;;4.00;;
42294;SDS011;27947;47.556;18.718;2023-04-03T00:25:38;5.18;;;3.83;;
42294;SDS011;27947;47.556;18.718;2023-04-03T00:28:03;6.47;;;3.90;;
42294;SDS011;27947;47.556;18.718;2023-04-03T00:30:29;5.22;;;3.50;;
42294;SDS011;27947;47.556;18.718;2023-04-03T00:32:54;4.90;;;3.40;;
42294;SDS011;27947;47.556;18.718;2023-04-03T00:35:20;5.43;;;3.75;;
42294;SDS011;27947;47.556;18.718;2023-04-03T00:37:46;4.85;;;3.53;;
42294;SDS011;27947;47.556;18.718;2023-04-03T00:40:12;6.97;;;3.80;;
42294;SDS011;27947;47.556;18.718;2023-04-03T00:42:40;4.15;;;3.15;;
42294;SDS011;27947;47.556;18.718;2023-04-03T00:47:30;5.03;;;3.10;;
42294;SDS011;27947;47.556;18.718;2023-04-03T00:49:56;4.70;;;3.17;;
42294;SDS011;27947;47.556;18.718;2023-04-03T00:52:23;4.97;;;3.17;;
42294;SDS011;27947;47.556;18.718;2023-04-03T00:54:50;4.13;;;2.92;;
42294;SDS011;27947;47.556;18.718;2023-04-03T00:57:17;5.70;;;3.33;;
42294;SDS011;27947;47.556;18.718;2023-04-03T00:59:44;4.25;;;2.97;;
42294;SDS011;27947;47.556;18.718;2023-04-03T01:02:11;3.97;;;2.80;;
42294;SDS011;27947;47.556;18.718;2023-04-03T01:04:38;3.78;;;2.60;;
42294;SDS011;27947;47.556;18.718;2023-04-03T01:07:06;3.92;;;2.90;;
42294;SDS011;27947;47.556;18.718;2023-04-03T01:09:32;3.55;;;2.60;;
42294;SDS011;27947;47.556;18.718;2023-04-03T01:12:14;4.13;;;2.92;;
42294;SDS011;27947;47.556;18.718;2023-04-03T01:14:42;4.40;;;3.25;;
42294;SDS011;27947;47.556;18.718;2023-04-03T01:19:53;5.20;;;3.33;;
42294;SDS011;27947;47.556;18.718;2023-04-03T01:22:25;4.72;;;3.20;;
42294;SDS011;27947;47.556;18.718;2023-04-03T01:24:55;4.55;;;3.17;;
42294;SDS011;27947;47.556;18.718;2023-04-03T01:27:21;5.85;;;3.58;;
42294;SDS011;27947;47.556;18.718;2023-04-03T01:29:46;5.22;;;3.53;;
42294;SDS011;27947;47.556;18.718;2023-04-03T01:32:12;4.60;;;3.05;;
42294;SDS011;27947;47.556;18.718;2023-04-03T01:34:37;5.50;;;3.55;;
42294;SDS011;27947;47.556;18.718;2023-04-03T01:37:03;8.82;;;3.60;;
42294;SDS011;27947;47.556;18.718;2023-04-03T01:39:28;5.13;;;3.47;;
42294;SDS011;27947;47.556;18.718;2023-04-03T01:41:54;5.20;;;3.58;;
42294;SDS011;27947;47.556;18.718;2023-04-03T01:44:41;6.75;;;4.32;;
42294;SDS011;27947;47.556;18.718;2023-04-03T01:47:07;4.32;;;3.42;;
42294;SDS011;27947;47.556;18.718;2023-04-03T01:49:33;4.20;;;3.50;;
42294;SDS011;27947;47.556;18.718;2023-04-03T01:51:58;7.47;;;4.07;;
42294;SDS011;27947;47.556;18.718;2023-04-03T01:54:24;5.93;;;3.67;;
42294;SDS011;27947;47.556;18.718;2023-04-03T01:56:49;5.18;;;3.30;;
42294;SDS011;27947;47.556;18.718;2023-04-03T01:59:16;5.57;;;3.60;;
42294;SDS011;27947;47.556;18.718;2023-04-03T02:01:43;5.10;;;3.90;;
42294;SDS011;27947;47.556;18.718;2023-04-03T02:04:10;6.00;;;3.85;;
42294;SDS011;27947;47.556;18.718;2023-04-03T02:06:36;4.60;;;3.58;;
42294;SDS011;27947;47.556;18.718;2023-04-03T02:09:01;5.43;;;3.88;;
42294;SDS011;27947;47.556;18.718;2023-04-03T02:11:26;8.65;;;4.32;;
42294;SDS011;27947;47.556;18.718;2023-04-03T02:13:52;9.02;;;4.38;;
42294;SDS011;27947;47.556;18.718;2023-04-03T02:16:17;4.82;;;3.75;;
42294;SDS011;27947;47.556;18.718;2023-04-03T02:18:42;6.65;;;4.10;;
42294;SDS011;27947;47.556;18.718;2023-04-03T02:21:08;6.72;;;4.10;;
42294;SDS011;27947;47.556;18.718;2023-04-03T02:23:33;5.00;;;3.65;;
42294;SDS011;27947;47.556;18.718;2023-04-03T02:26:08;5.40;;;3.28;;
42294;SDS011;27947;47.556;18.718;2023-04-03T02:28:34;5.55;;;4.07;;
42294;SDS011;27947;47.556;18.718;2023-04-03T02:31:00;6.65;;;4.15;;
42294;SDS011;27947;47.556;18.718;2023-04-03T02:33:25;6.55;;;3.90;;
42294;SDS011;27947;47.556;18.718;2023-04-03T02:35:54;5.97;;;3.97;;
42294;SDS011;27947;47.556;18.718;2023-04-03T02:38:21;5.38;;;4.10;;
42294;SDS011;27947;47.556;18.718;2023-04-03T02:40:47;5.32;;;3.38;;
42294;SDS011;27947;47.556;18.718;2023-04-03T02:43:13;8.95;;;4.20;;
42294;SDS011;27947;47.556;18.718;2023-04-03T02:45:38;6.32;;;4.10;;
42294;SDS011;27947;47.556;18.718;2023-04-03T02:48:04;5.00;;;3.55;;
42294;SDS011;27947;47.556;18.718;2023-04-03T02:50:30;5.90;;;3.85;;
42294;SDS011;27947;47.556;18.718;2023-04-03T02:52:55;7.55;;;4.25;;
42294;SDS011;27947;47.556;18.718;2023-04-03T02:55:21;5.95;;;3.90;;
42294;SDS011;27947;47.556;18.718;2023-04-03T02:57:49;5.68;;;3.72;;
42294;SDS011;27947;47.556;18.718;2023-04-03T03:00:14;5.13;;;3.40;;
42294;SDS011;27947;47.556;18.718;2023-04-03T03:02:40;4.70;;;3.35;;
42294;SDS011;27947;47.556;18.718;2023-04-03T03:05:06;5.90;;;4.15;;
42294;SDS011;27947;47.556;18.718;2023-04-03T03:07:31;5.88;;;3.72;;
42294;SDS011;27947;47.556;18.718;2023-04-03T03:09:57;5.93;;;3.90;;
42294;SDS011;27947;47.556;18.718;2023-04-03T03:12:22;4.63;;;3.45;;
42294;SDS011;27947;47.556;18.718;2023-04-03T03:14:49;4.65;;;3.65;;
42294;SDS011;27947;47.556;18.718;2023-04-03T03:17:15;5.63;;;3.58;;
42294;SDS011;27947;47.556;18.718;2023-04-03T03:19:40;6.85;;;3.42;;
42294;SDS011;27947;47.556;18.718;2023-04-03T03:22:06;6.07;;;3.30;;
42294;SDS011;27947;47.556;18.718;2023-04-03T03:24:31;5.72;;;3.85;;
42294;SDS011;27947;47.556;18.718;2023-04-03T03:26:56;5.88;;;3.35;;
42294;SDS011;27947;47.556;18.718;2023-04-03T03:29:22;5.28;;;3.55;;
42294;SDS011;27947;47.556;18.718;2023-04-03T03:31:47;5.93;;;3.80;;
42294;SDS011;27947;47.556;18.718;2023-04-03T03:34:13;5.53;;;3.33;;
42294;SDS011;27947;47.556;18.718;2023-04-03T03:36:38;5.68;;;3.53;;
42294;SDS011;27947;47.556;18.718;2023-04-03T03:39:04;5.25;;;3.65;;
42294;SDS011;27947;47.556;18.718;2023-04-03T03:41:29;4.70;;;3.35;;
42294;SDS011;27947;47.556;18.718;2023-04-03T03:43:55;4.60;;;3.58;;
42294;SDS011;27947;47.556;18.718;2023-04-03T03:46:20;6.28;;;3.47;;
42294;SDS011;27947;47.556;18.718;2023-04-03T03:48:45;7.45;;;4.00;;
42294;SDS011;27947;47.556;18.718;2023-04-03T03:51:11;4.93;;;3.50;;
42294;SDS011;27947;47.556;18.718;2023-04-03T03:53:37;4.68;;;3.50;;
42294;SDS011;27947;47.556;18.718;2023-04-03T03:56:06;4.88;;;3.80;;
42294;SDS011;27947;47.556;18.718;2023-04-03T03:58:33;7.47;;;3.75;;
42294;SDS011;27947;47.556;18.718;2023-04-03T04:01:02;5.72;;;4.00;;
42294;SDS011;27947;47.556;18.718;2023-04-03T04:03:28;4.38;;;3.40;;
42294;SDS011;27947;47.556;18.718;2023-04-03T04:05:54;4.47;;;3.30;;
42294;SDS011;27947;47.556;18.718;2023-04-03T04:08:20;5.38;;;3.60;;
42294;SDS011;27947;47.556;18.718;2023-04-03T04:10:46;5.13;;;3.35;;
42294;SDS011;27947;47.556;18.718;2023-04-03T04:13:13;5.43;;;3.53;;
42294;SDS011;27947;47.556;18.718;2023-04-03T04:15:39;6.95;;;3.33;;
42294;SDS011;27947;47.556;18.718;2023-04-03T04:18:05;4.30;;;2.85;;
42294;SDS011;27947;47.556;18.718;2023-04-03T04:20:31;5.35;;;3.40;;
42294;SDS011;27947;47.556;18.718;2023-04-03T04:22:57;4.32;;;2.80;;
42294;SDS011;27947;47.556;18.718;2023-04-03T04:25:23;4.60;;;3.22;;
42294;SDS011;27947;47.556;18.718;2023-04-03T04:27:49;5.78;;;3.13;;
42294;SDS011;27947;47.556;18.718;2023-04-03T04:30:15;5.25;;;3.22;;
42294;SDS011;27947;47.556;18.718;2023-04-03T04:32:41;5.30;;;2.80;;
42294;SDS011;27947;47.556;18.718;2023-04-03T04:35:07;3.88;;;3.00;;
42294;SDS011;27947;47.556;18.718;2023-04-03T04:37:35;4.63;;;2.92;;
42294;SDS011;27947;47.556;18.718;2023-04-03T04:40:01;3.55;;;2.80;;
42294;SDS011;27947;47.556;18.718;2023-04-03T04:42:27;4.10;;;2.88;;
42294;SDS011;27947;47.556;18.718;2023-04-03T04:44:52;3.72;;;2.60;;
42294;SDS011;27947;47.556;18.718;2023-04-03T04:47:18;5.18;;;3.42;;
42294;SDS011;27947;47.556;18.718;2023-04-03T04:49:43;4.47;;;2.95;;
42294;SDS011;27947;47.556;18.718;2023-04-03T04:52:10;4.93;;;3.03;;
42294;SDS011;27947;47.556;18.718;2023-04-03T04:54:35;4.47;;;2.80;;
42294;SDS011;27947;47.556;18.718;2023-04-03T04:57:01;4.00;;;3.03;;
42294;SDS011;27947;47.556;18.718;2023-04-03T04:59:28;4.05;;;2.85;;
42294;SDS011;27947;47.556;18.718;2023-04-03T05:01:56;4.50;;;2.90;;
42294;SDS011;27947;47.556;18.718;2023-04-03T05:04:21;4.05;;;2.80;;
42294;SDS011;27947;47.556;18.718;2023-04-03T05:06:51;4.38;;;2.90;;
42294;SDS011;27947;47.556;18.718;2023-04-03T05:09:21;5.13;;;3.08;;
42294;SDS011;27947;47.556;18.718;2023-04-03T05:11:48;4.75;;;3.20;;
42294;SDS011;27947;47.556;18.718;2023-04-03T05:14:15;5.05;;;3.20;;
42294;SDS011;27947;47.556;18.718;2023-04-03T05:16:41;5.25;;;3.00;;
42294;SDS011;27947;47.556;18.718;2023-04-03T05:19:07;4.15;;;2.80;;
42294;SDS011;27947;47.556;18.718;2023-04-03T05:21:32;5.60;;;3.35;;
42294;SDS011;27947;47.556;18.718;2023-04-03T05:24:01;4.28;;;3.20;;
42294;SDS011;27947;47.556;18.718;2023-04-03T05:26:30;4.90;;;3.20;;
42294;SDS011;27947;47.556;18.718;2023-04-03T05:28:55;5.30;;;3.45;;
42294;SDS011;27947;47.556;18.718;2023-04-03T05:31:21;4.60;;;3.25;;
42294;SDS011;27947;47.556;18.718;2023-04-03T05:33:48;5.30;;;3.40;;
42294;SDS011;27947;47.556;18.718;2023-04-03T05:36:16;7.38;;;4.68;;
42294;SDS011;27947;47.556;18.718;2023-04-03T05:38:44;13.45;;;7.60;;
42294;SDS011;27947;47.556;18.718;2023-04-03T05:41:10;5.97;;;3.88;;
42294;SDS011;27947;47.556;18.718;2023-04-03T05:43:36;4.38;;;3.58;;
42294;SDS011;27947;47.556;18.718;2023-04-03T05:46:08;5.07;;;3.15;;
42294;SDS011;27947;47.556;18.718;2023-04-03T05:48:33;5.28;;;2.92;;
42294;SDS011;27947;47.556;18.718;2023-04-03T05:50:59;4.70;;;3.45;;
42294;SDS011;27947;47.556;18.718;2023-04-03T05:53:27;4.82;;;3.33;;
42294;SDS011;27947;47.556;18.718;2023-04-03T05:55:55;5.80;;;3.28;;
42294;SDS011;27947;47.556;18.718;2023-04-03T05:58:21;4.80;;;3.20;;
42294;SDS011;27947;47.556;18.718;2023-04-03T06:00:48;4.88;;;3.15;;
42294;SDS011;27947;47.556;18.718;2023-04-03T06:03:13;3.85;;;2.90;;
42294;SDS011;27947;47.556;18.718;2023-04-03T06:05:39;4.47;;;3.05;;
42294;SDS011;27947;47.556;18.718;2023-04-03T06:08:04;3.28;;;2.60;;
42294;SDS011;27947;47.556;18.718;2023-04-03T06:10:31;3.70;;;2.85;;
42294;SDS011;27947;47.556;18.718;2023-04-03T06:12:56;3.85;;;2.92;;
42294;SDS011;27947;47.556;18.718;2023-04-03T06:15:22;4.13;;;2.55;;
42294;SDS011;27947;47.556;18.718;2023-04-03T06:17:48;3.40;;;2.60;;
42294;SDS011;27947;47.556;18.718;2023-04-03T06:20:13;3.50;;;2.42;;
42294;SDS011;27947;47.556;18.718;2023-04-03T06:22:39;4.70;;;2.70;;
42294;SDS011;27947;47.556;18.718;2023-04-03T06:25:04;4.13;;;2.83;;
42294;SDS011;27947;47.556;18.718;2023-04-03T06:27:30;3.92;;;2.65;;
42294;SDS011;27947;47.556;18.718;2023-04-03T06:29:55;3.33;;;2.47;;
42294;SDS011;27947;47.556;18.718;2023-04-03T06:32:21;4.13;;;2.90;;
42294;SDS011;27947;47.556;18.718;2023-04-03T06:34:46;3.90;;;2.90;;
42294;SDS011;27947;47.556;18.718;2023-04-03T06:37:15;4.53;;;2.70;;
42294;SDS011;27947;47.556;18.718;2023-04-03T06:39:41;3.45;;;2.63;;
42294;SDS011;27947;47.556;18.718;2023-04-03T06:42:07;5.05;;;2.75;;
42294;SDS011;27947;47.556;18.718;2023-04-03T06:44:37;3.42;;;2.63;;
42294;SDS011;27947;47.556;18.718;2023-04-03T06:47:02;3.08;;;2.30;;
42294;SDS011;27947;47.556;18.718;2023-04-03T06:49:28;3.60;;;2.35;;
42294;SDS011;27947;47.556;18.718;2023-04-03T06:51:54;5.32;;;2.30;;
42294;SDS011;27947;47.556;18.718;2023-04-03T06:54:19;4.78;;;1.95;;
42294;SDS011;27947;47.556;18.718;2023-04-03T06:56:45;3.05;;;2.05;;
42294;SDS011;27947;47.556;18.718;2023-04-03T06:59:11;3.85;;;2.38;;
42294;SDS011;27947;47.556;18.718;2023-04-03T07:01:37;3.38;;;1.98;;
42294;SDS011;27947;47.556;18.718;2023-04-03T07:04:03;2.60;;;2.03;;
42294;SDS011;27947;47.556;18.718;2023-04-03T07:06:28;2.45;;;1.73;;
42294;SDS011;27947;47.556;18.718;2023-04-03T07:08:54;2.55;;;1.83;;
42294;SDS011;27947;47.556;18.718;2023-04-03T07:11:19;2.58;;;1.80;;
42294;SDS011;27947;47.556;18.718;2023-04-03T07:13:45;2.63;;;1.88;;
42294;SDS011;27947;47.556;18.718;2023-04-03T07:16:11;2.50;;;1.70;;
42294;SDS011;27947;47.556;18.718;2023-04-03T07:18:36;1.80;;;1.45;;
42294;SDS011;27947;47.556;18.718;2023-04-03T07:21:02;3.38;;;2.15;;
42294;SDS011;27947;47.556;18.718;2023-04-03T07:23:27;2.97;;;1.90;;
42294;SDS011;27947;47.556;18.718;2023-04-03T07:25:53;1.77;;;1.50;;
42294;SDS011;27947;47.556;18.718;2023-04-03T07:28:20;3.08;;;1.55;;
42294;SDS011;27947;47.556;18.718;2023-04-03T07:31:10;4.00;;;1.50;;
42294;SDS011;27947;47.556;18.718;2023-04-03T07:33:33;1.80;;;1.30;;
42294;SDS011;27947;47.556;18.718;2023-04-03T07:35:59;1.38;;;1.20;;
42294;SDS011;27947;47.556;18.718;2023-04-03T07:38:25;1.65;;;1.13;;
42294;SDS011;27947;47.556;18.718;2023-04-03T07:40:51;2.00;;;1.52;;
42294;SDS011;27947;47.556;18.718;2023-04-03T07:43:18;2.35;;;1.50;;
42294;SDS011;27947;47.556;18.718;2023-04-03T07:45:44;1.83;;;1.33;;
42294;SDS011;27947;47.556;18.718;2023-04-03T07:48:10;1.92;;;1.50;;
42294;SDS011;27947;47.556;18.718;2023-04-03T07:50:36;1.42;;;1.08;;
42294;SDS011;27947;47.556;18.718;2023-04-03T07:53:02;1.60;;;1.30;;
42294;SDS011;27947;47.556;18.718;2023-04-03T07:55:27;1.40;;;1.20;;
42294;SDS011;27947;47.556;18.718;2023-04-03T07:57:53;1.58;;;0.98;;
42294;SDS011;27947;47.556;18.718;2023-04-03T08:00:18;1.50;;;1.05;;
42294;SDS011;27947;47.556;18.718;2023-04-03T08:02:44;1.33;;;1.20;;
42294;SDS011;27947;47.556;18.718;2023-04-03T08:05:15;2.30;;;1.10;;
42294;SDS011;27947;47.556;18.718;2023-04-03T08:07:40;1.88;;;1.10;;
42294;SDS011;27947;47.556;18.718;2023-04-03T08:10:06;5.22;;;1.20;;
42294;SDS011;27947;47.556;18.718;2023-04-03T08:12:31;1.40;;;1.20;;
42294;SDS011;27947;47.556;18.718;2023-04-03T08:14:57;1.25;;;1.02;;
42294;SDS011;27947;47.556;18.718;2023-04-03T08:17:22;1.33;;;1.00;;
42294;SDS011;27947;47.556;18.718;2023-04-03T08:19:48;1.58;;;1.00;;
42294;SDS011;27947;47.556;18.718;2023-04-03T08:22:13;1.65;;;0.95;;
42294;SDS011;27947;47.556;18.718;2023-04-03T08:24:38;1.58;;;1.00;;
42294;SDS011;27947;47.556;18.718;2023-04-03T08:27:04;1.15;;;0.90;;
42294;SDS011;27947;47.556;18.718;2023-04-03T08:29:30;1.42;;;1.13;;
42294;SDS011;27947;47.556;18.718;2023-04-03T08:31:55;1.13;;;0.90;;
42294;SDS011;27947;47.556;18.718;2023-04-03T08:34:21;1.23;;;0.95;;
42294;SDS011;27947;47.556;18.718;2023-04-03T08:36:46;2.88;;;0.90;;
42294;SDS011;27947;47.556;18.718;2023-04-03T08:39:12;1.17;;;0.73;;
42294;SDS011;27947;47.556;18.718;2023-04-03T08:41:41;0.80;;;0.75;;
42294;SDS011;27947;47.556;18.718;2023-04-03T08:46:39;1.20;;;0.90;;
42294;SDS011;27947;47.556;18.718;2023-04-03T08:51:35;0.90;;;0.77;;
42294;SDS011;27947;47.556;18.718;2023-04-03T08:54:06;3.47;;;0.82;;
42294;SDS011;27947;47.556;18.718;2023-04-03T08:56:33;1.27;;;0.80;;
42294;SDS011;27947;47.556;18.718;2023-04-03T08:59:03;1.10;;;1.00;;
42294;SDS011;27947;47.556;18.718;2023-04-03T09:01:37;1.02;;;0.75;;
42294;SDS011;27947;47.556;18.718;2023-04-03T09:04:09;1.13;;;0.80;;
42294;SDS011;27947;47.556;18.718;2023-04-03T09:06:35;0.90;;;0.75;;
42294;SDS011;27947;47.556;18.718;2023-04-03T09:11:27;1.42;;;0.90;;
42294;SDS011;27947;47.556;18.718;2023-04-03T09:14:07;0.63;;;0.60;;
42294;SDS011;27947;47.556;18.718;2023-04-03T09:19:06;1.00;;;0.70;;
42294;SDS011;27947;47.556;18.718;2023-04-03T09:21:36;2.25;;;0.80;;
42294;SDS011;27947;47.556;18.718;2023-04-03T09:24:02;0.90;;;0.52;;
42294;SDS011;27947;47.556;18.718;2023-04-03T09:26:34;1.90;;;0.73;;
42294;SDS011;27947;47.556;18.718;2023-04-03T09:29:02;0.98;;;0.70;;
42294;SDS011;27947;47.556;18.718;2023-04-03T09:31:31;2.28;;;0.75;;
42294;SDS011;27947;47.556;18.718;2023-04-03T09:34:01;1.05;;;0.80;;
42294;SDS011;27947;47.556;18.718;2023-04-03T09:39:26;0.98;;;0.75;;
42294;SDS011;27947;47.556;18.718;2023-04-03T09:42:03;1.48;;;0.80;;
42294;SDS011;27947;47.556;18.718;2023-04-03T09:44:34;0.70;;;0.63;;
42294;SDS011;27947;47.556;18.718;2023-04-03T09:47:17;3.65;;;0.82;;
42294;SDS011;27947;47.556;18.718;2023-04-03T09:49:43;0.80;;;0.60;;
42294;SDS011;27947;47.556;18.718;2023-04-03T09:52:22;1.13;;;0.75;;
42294;SDS011;27947;47.556;18.718;2023-04-03T09:54:49;1.05;;;0.80;;
42294;SDS011;27947;47.556;18.718;2023-04-03T09:57:14;1.45;;;0.90;;
42294;SDS011;27947;47.556;18.718;2023-04-03T10:00:01;1.27;;;0.70;;
42294;SDS011;27947;47.556;18.718;2023-04-03T10:04:54;1.05;;;0.70;;
42294;SDS011;27947;47.556;18.718;2023-04-03T10:09:58;0.98;;;0.73;;
42294;SDS011;27947;47.556;18.718;2023-04-03T10:12:24;1.30;;;0.85;;
42294;SDS011;27947;47.556;18.718;2023-04-03T10:17:18;1.48;;;0.82;;
42294;SDS011;27947;47.556;18.718;2023-04-03T10:19:53;1.90;;;0.93;;
42294;SDS011;27947;47.556;18.718;2023-04-03T10:30:04;1.67;;;0.90;;
42294;SDS011;27947;47.556;18.718;2023-04-03T10:40:12;1.88;;;0.68;;
42294;SDS011;27947;47.556;18.718;2023-04-03T10:42:58;1.52;;;0.80;;
42294;SDS011;27947;47.556;18.718;2023-04-03T10:45:30;2.47;;;1.23;;
42294;SDS011;27947;47.556;18.718;2023-04-03T10:58:34;1.20;;;1.10;;
42294;SDS011;27947;47.556;18.718;2023-04-03T11:01:08;2.75;;;1.20;;
42294;SDS011;27947;47.556;18.718;2023-04-03T11:03:35;1.15;;;0.90;;
42294;SDS011;27947;47.556;18.718;2023-04-03T11:06:02;1.15;;;1.00;;
42294;SDS011;27947;47.556;18.718;2023-04-03T11:11:00;2.92;;;1.17;;
42294;SDS011;27947;47.556;18.718;2023-04-03T11:16:00;1.57;;;1.10;;
42294;SDS011;27947;47.556;18.718;2023-04-03T11:18:31;3.03;;;1.38;;
42294;SDS011;27947;47.556;18.718;2023-04-03T11:21:02;1.67;;;1.20;;
42294;SDS011;27947;47.556;18.718;2023-04-03T11:23:31;1.98;;;1.30;;
42294;SDS011;27947;47.556;18.718;2023-04-03T11:26:06;1.85;;;1.40;;
42294;SDS011;27947;47.556;18.718;2023-04-03T11:28:32;1.58;;;1.30;;
42294;SDS011;27947;47.556;18.718;2023-04-03T11:31:16;1.75;;;1.30;;
42294;SDS011;27947;47.556;18.718;2023-04-03T11:36:18;2.13;;;1.30;;
42294;SDS011;27947;47.556;18.718;2023-04-03T11:38:45;1.40;;;1.13;;
42294;SDS011;27947;47.556;18.718;2023-04-03T11:41:12;1.52;;;1.10;;
42294;SDS011;27947;47.556;18.718;2023-04-03T11:43:41;1.35;;;1.00;;
42294;SDS011;27947;47.556;18.718;2023-04-03T11:46:07;2.08;;;1.25;;
42294;SDS011;27947;47.556;18.718;2023-04-03T11:50:59;2.65;;;1.20;;
42294;SDS011;27947;47.556;18.718;2023-04-03T11:58:16;2.08;;;1.00;;
42294;SDS011;27947;47.556;18.718;2023-04-03T12:00:46;1.77;;;1.38;;
42294;SDS011;27947;47.556;18.718;2023-04-03T12:13:33;1.65;;;1.38;;
42294;SDS011;27947;47.556;18.718;2023-04-03T12:15:58;2.55;;;1.27;;
42294;SDS011;27947;47.556;18.718;2023-04-03T12:18:36;1.70;;;1.30;;
42294;SDS011;27947;47.556;18.718;2023-04-03T12:21:05;1.65;;;1.35;;
42294;SDS011;27947;47.556;18.718;2023-04-03T12:23:34;1.63;;;1.30;;
42294;SDS011;27947;47.556;18.718;2023-04-03T12:28:30;1.65;;;1.10;;
42294;SDS011;27947;47.556;18.718;2023-04-03T12:31:00;1.40;;;1.02;;
42294;SDS011;27947;47.556;18.718;2023-04-03T12:34:11;1.40;;;1.08;;
42294;SDS011;27947;47.556;18.718;2023-04-03T12:41:37;1.70;;;1.23;;
42294;SDS011;27947;47.556;18.718;2023-04-03T12:46:49;1.63;;;1.40;;
42294;SDS011;27947;47.556;18.718;2023-04-03T12:49:23;1.85;;;1.27;;
42294;SDS011;27947;47.556;18.718;2023-04-03T12:51:51;3.08;;;1.40;;
42294;SDS011;27947;47.556;18.718;2023-04-03T12:54:34;2.90;;;1.23;;
42294;SDS011;27947;47.556;18.718;2023-04-03T12:59:55;2.95;;;1.52;;
42294;SDS011;27947;47.556;18.718;2023-04-03T13:04:46;1.52;;;1.20;;
42294;SDS011;27947;47.556;18.718;2023-04-03T13:07:22;2.42;;;1.48;;
42294;SDS011;27947;47.556;18.718;2023-04-03T13:12:49;2.85;;;1.17;;
42294;SDS011;27947;47.556;18.718;2023-04-03T13:15:17;1.48;;;1.02;;
42294;SDS011;27947;47.556;18.718;2023-04-03T13:17:43;2.55;;;1.60;;
42294;SDS011;27947;47.556;18.718;2023-04-03T13:20:12;1.98;;;1.40;;
42294;SDS011;27947;47.556;18.718;2023-04-03T13:22:45;2.35;;;1.33;;
42294;SDS011;27947;47.556;18.718;2023-04-03T13:25:13;1.98;;;1.58;;
42294;SDS011;27947;47.556;18.718;2023-04-03T13:27:40;1.92;;;1.35;;
42294;SDS011;27947;47.556;18.718;2023-04-03T13:30:29;4.03;;;1.90;;
42294;SDS011;27947;47.556;18.718;2023-04-03T13:32:54;4.47;;;1.33;;
42294;SDS011;27947;47.556;18.718;2023-04-03T13:37:55;1.67;;;1.40;;
42294;SDS011;27947;47.556;18.718;2023-04-03T13:40:21;3.20;;;1.90;;
42294;SDS011;27947;47.556;18.718;2023-04-03T13:42:46;2.88;;;1.50;;
42294;SDS011;27947;47.556;18.718;2023-04-03T13:45:29;2.65;;;1.75;;
42294;SDS011;27947;47.556;18.718;2023-04-03T13:50:22;3.95;;;1.58;;
42294;SDS011;27947;47.556;18.718;2023-04-03T13:52:54;4.30;;;1.55;;
42294;SDS011;27947;47.556;18.718;2023-04-03T13:55:24;5.70;;;1.77;;
42294;SDS011;27947;47.556;18.718;2023-04-03T13:57:51;1.92;;;1.25;;
42294;SDS011;27947;47.556;18.718;2023-04-03T14:00:37;3.53;;;1.63;;
42294;SDS011;27947;47.556;18.718;2023-04-03T14:03:12;5.57;;;1.60;;
42294;SDS011;27947;47.556;18.718;2023-04-03T14:05:37;2.70;;;1.40;;
42294;SDS011;27947;47.556;18.718;2023-04-03T14:08:02;3.22;;;1.67;;
42294;SDS011;27947;47.556;18.718;2023-04-03T14:10:28;3.75;;;1.52;;
42294;SDS011;27947;47.556;18.718;2023-04-03T14:12:54;5.72;;;1.65;;
42294;SDS011;27947;47.556;18.718;2023-04-03T14:15:24;3.28;;;1.40;;
42294;SDS011;27947;47.556;18.718;2023-04-03T14:17:51;2.90;;;2.03;;
42294;SDS011;27947;47.556;18.718;2023-04-03T14:20:18;2.63;;;1.50;;
42294;SDS011;27947;47.556;18.718;2023-04-03T14:22:45;3.13;;;1.40;;
42294;SDS011;27947;47.556;18.718;2023-04-03T14:25:10;4.78;;;1.52;;
42294;SDS011;27947;47.556;18.718;2023-04-03T14:27:37;4.78;;;1.73;;
42294;SDS011;27947;47.556;18.718;2023-04-03T14:30:03;3.20;;;1.40;;
42294;SDS011;27947;47.556;18.718;2023-04-03T14:32:29;3.80;;;1.60;;
42294;SDS011;27947;47.556;18.718;2023-04-03T14:34:55;3.08;;;1.50;;
42294;SDS011;27947;47.556;18.718;2023-04-03T14:37:23;5.35;;;1.40;;
42294;SDS011;27947;47.556;18.718;2023-04-03T14:39:49;2.00;;;1.20;;
42294;SDS011;27947;47.556;18.718;2023-04-03T14:42:16;3.03;;;1.35;;
42294;SDS011;27947;47.556;18.718;2023-04-03T14:44:42;5.40;;;1.33;;
42294;SDS011;27947;47.556;18.718;2023-04-03T14:47:11;4.25;;;1.65;;
42294;SDS011;27947;47.556;18.718;2023-04-03T14:49:37;2.25;;;1.27;;
42294;SDS011;27947;47.556;18.718;2023-04-03T14:52:02;3.75;;;1.90;;
42294;SDS011;27947;47.556;18.718;2023-04-03T14:54:27;2.60;;;1.30;;
42294;SDS011;27947;47.556;18.718;2023-04-03T14:56:54;8.55;;;1.60;;
42294;SDS011;27947;47.556;18.718;2023-04-03T14:59:20;4.78;;;1.48;;
42294;SDS011;27947;47.556;18.718;2023-04-03T15:01:46;3.22;;;1.48;;
42294;SDS011;27947;47.556;18.718;2023-04-03T15:04:13;2.75;;;1.40;;
42294;SDS011;27947;47.556;18.718;2023-04-03T15:06:38;1.92;;;1.30;;
42294;SDS011;27947;47.556;18.718;2023-04-03T15:09:04;2.67;;;1.38;;
42294;SDS011;27947;47.556;18.718;2023-04-03T15:11:29;2.08;;;1.17;;
42294;SDS011;27947;47.556;18.718;2023-04-03T15:13:55;5.03;;;1.30;;
42294;SDS011;27947;47.556;18.718;2023-04-03T15:16:20;3.25;;;1.20;;
42294;SDS011;27947;47.556;18.718;2023-04-03T15:18:46;4.22;;;1.25;;
42294;SDS011;27947;47.556;18.718;2023-04-03T15:21:12;2.70;;;1.33;;
42294;SDS011;27947;47.556;18.718;2023-04-03T15:23:37;3.15;;;1.58;;
42294;SDS011;27947;47.556;18.718;2023-04-03T15:26:03;2.47;;;1.38;;
42294;SDS011;27947;47.556;18.718;2023-04-03T15:30:54;2.90;;;1.48;;
42294;SDS011;27947;47.556;18.718;2023-04-03T15:33:19;3.65;;;1.45;;
42294;SDS011;27947;47.556;18.718;2023-04-03T15:35:45;3.30;;;1.52;;
42294;SDS011;27947;47.556;18.718;2023-04-03T15:38:10;4.43;;;1.38;;
42294;SDS011;27947;47.556;18.718;2023-04-03T15:40:36;4.22;;;1.70;;
42294;SDS011;27947;47.556;18.718;2023-04-03T15:43:01;3.30;;;1.55;;
42294;SDS011;27947;47.556;18.718;2023-04-03T15:45:30;5.63;;;2.47;;
42294;SDS011;27947;47.556;18.718;2023-04-03T15:47:55;2.35;;;1.40;;
42294;SDS011;27947;47.556;18.718;2023-04-03T15:50:21;2.20;;;1.30;;
42294;SDS011;27947;47.556;18.718;2023-04-03T15:52:49;3.88;;;1.30;;
42294;SDS011;27947;47.556;18.718;2023-04-03T15:55:19;3.15;;;1.42;;
42294;SDS011;27947;47.556;18.718;2023-04-03T15:57:45;3.92;;;1.40;;
42294;SDS011;27947;47.556;18.718;2023-04-03T16:00:10;3.95;;;1.50;;
42294;SDS011;27947;47.556;18.718;2023-04-03T16:02:36;2.92;;;1.65;;
42294;SDS011;27947;47.556;18.718;2023-04-03T16:05:01;3.70;;;1.55;;
42294;SDS011;27947;47.556;18.718;2023-04-03T16:07:27;3.33;;;1.85;;
42294;SDS011;27947;47.556;18.718;2023-04-03T16:09:52;3.30;;;1.40;;
42294;SDS011;27947;47.556;18.718;2023-04-03T16:12:18;4.30;;;1.63;;
42294;SDS011;27947;47.556;18.718;2023-04-03T16:14:43;4.40;;;1.90;;
42294;SDS011;27947;47.556;18.718;2023-04-03T16:17:08;3.40;;;1.58;;